Beauregard Regional Airport De Ridder US
ICAO: KDRI
IATA: DRI
Category: Medium
Scheduled Services: No

Elevation: 202 ft
TransAlt. 18000 ft.

Airport Communications:
POLK APP/DEP:123.7
AWOS 3:118.225
DE RIDDER RDO:122.2
CTAF/UNICOM:122.8

KDRI Zoom In..

If you have problems with the map follow the link
https://www.worldairports.se/pages/airport.php?
ICAO=KDRI

Runways:

(A) RW 14 length 4220 ft width 60 ft
LOC 111.10 / hdg 130

(B) RW 18 length 5495 ft width 100 ft
LOC 111.10 / hdg 175

(C) RW 32 length 4220 ft width 60 ft
LOC 111.10 / hdg 310

(D) RW 36 length 5495 ft width 100 ft
LOC 111.10 / hdg 355

Location; KDRI
Day. 20 / Time. 21.35 Zulu
* Altimeter: 29.95
* Temperature: 16° c. 60.8°f.
* Wind from: 360° Speed 03 kn.
Dewpoint: 06° c.
Visibility: 10 Statute Miles.
Clouds: Broken 8000 ft.

KDRI 202135Z AUTO 36003KT 10SM BKN080 16/06 A2995 RMK AO2 T01570059


Wind From 360°
Speed 03 kn.

 
 
jpsmedia.com for Web Design worldairports.se 2019   terms of use